Calhoun Falls, South Carolina
Current Conditions -  °F | °C
As of 8:35 AM on Sunday 23 Nov 2014 (Local Time) from KIIY Reporting Station
Heavy Rain Heavy Rain  
Wind Chill: 50°   Ceiling: 100
Heat Index: 50°   Visibility: 2.5mi
Dew Point: 50°   Wind: 8mph
Humidity: 100%   Direction: 70°ENE
Pressure: 30.09"   Gusts: NA
Location:  34.09°N, 82.6°W
Report Text: KIIY 231335Z AUTO 07007KT 2 1/2SM +RA OVC001 10/10 A3009 RMK AO2
Loading
Personal Weather Stations






























Interactive Weather Map New forecast layout! Learn more

10-Day Weather Forecast

Advertisements
Track Severe Weather on mobile